sensor_id;sensor_type;location;lat;lon;timestamp;P1;durP1;ratioP1;P2;durP2;ratioP2
52744;SDS011;38637;49.984;20.426;2023-04-29T00:00:17;37.63;;;26.57;;
52744;SDS011;38637;49.984;20.426;2023-04-29T00:02:42;35.03;;;24.30;;
52744;SDS011;38637;49.984;20.426;2023-04-29T00:05:08;32.77;;;23.53;;
52744;SDS011;38637;49.984;20.426;2023-04-29T00:07:33;32.00;;;23.63;;
52744;SDS011;38637;49.984;20.426;2023-04-29T00:09:59;37.87;;;25.83;;
52744;SDS011;38637;49.984;20.426;2023-04-29T00:12:24;33.40;;;24.33;;
52744;SDS011;38637;49.984;20.426;2023-04-29T00:14:50;34.13;;;23.27;;
52744;SDS011;38637;49.984;20.426;2023-04-29T00:17:15;29.20;;;22.60;;
52744;SDS011;38637;49.984;20.426;2023-04-29T00:19:41;28.30;;;21.53;;
52744;SDS011;38637;49.984;20.426;2023-04-29T00:22:07;35.53;;;24.35;;
52744;SDS011;38637;49.984;20.426;2023-04-29T00:24:33;32.10;;;24.00;;
52744;SDS011;38637;49.984;20.426;2023-04-29T00:26:58;33.33;;;23.33;;
52744;SDS011;38637;49.984;20.426;2023-04-29T00:29:23;31.83;;;23.23;;
52744;SDS011;38637;49.984;20.426;2023-04-29T00:31:49;34.17;;;24.87;;
52744;SDS011;38637;49.984;20.426;2023-04-29T00:34:14;35.13;;;24.70;;
52744;SDS011;38637;49.984;20.426;2023-04-29T00:36:40;31.87;;;22.07;;
52744;SDS011;38637;49.984;20.426;2023-04-29T00:39:05;35.50;;;25.03;;
52744;SDS011;38637;49.984;20.426;2023-04-29T00:41:31;40.33;;;24.83;;
52744;SDS011;38637;49.984;20.426;2023-04-29T00:43:57;33.13;;;24.33;;
52744;SDS011;38637;49.984;20.426;2023-04-29T00:46:22;32.27;;;23.23;;
52744;SDS011;38637;49.984;20.426;2023-04-29T00:48:48;34.63;;;25.17;;
52744;SDS011;38637;49.984;20.426;2023-04-29T00:51:14;32.15;;;24.00;;
52744;SDS011;38637;49.984;20.426;2023-04-29T00:53:41;33.13;;;24.05;;
52744;SDS011;38637;49.984;20.426;2023-04-29T00:56:07;30.13;;;23.50;;
52744;SDS011;38637;49.984;20.426;2023-04-29T00:58:32;33.67;;;23.17;;
52744;SDS011;38637;49.984;20.426;2023-04-29T01:00:59;30.60;;;21.90;;
52744;SDS011;38637;49.984;20.426;2023-04-29T01:03:27;40.15;;;23.73;;
52744;SDS011;38637;49.984;20.426;2023-04-29T01:05:57;40.10;;;24.65;;
52744;SDS011;38637;49.984;20.426;2023-04-29T01:08:52;29.23;;;22.15;;
52744;SDS011;38637;49.984;20.426;2023-04-29T01:11:26;33.10;;;24.23;;
52744;SDS011;38637;49.984;20.426;2023-04-29T01:13:58;33.05;;;23.55;;
52744;SDS011;38637;49.984;20.426;2023-04-29T01:16:47;34.15;;;24.90;;
52744;SDS011;38637;49.984;20.426;2023-04-29T01:22:12;34.63;;;23.73;;
52744;SDS011;38637;49.984;20.426;2023-04-29T01:24:45;30.75;;;22.65;;
52744;SDS011;38637;49.984;20.426;2023-04-29T01:27:36;30.15;;;23.15;;
52744;SDS011;38637;49.984;20.426;2023-04-29T01:35:39;32.92;;;22.88;;
52744;SDS011;38637;49.984;20.426;2023-04-29T01:38:19;34.17;;;24.08;;
52744;SDS011;38637;49.984;20.426;2023-04-29T01:40:58;34.35;;;23.83;;
52744;SDS011;38637;49.984;20.426;2023-04-29T01:43:49;31.27;;;24.37;;
52744;SDS011;38637;49.984;20.426;2023-04-29T01:46:16;35.10;;;24.58;;
52744;SDS011;38637;49.984;20.426;2023-04-29T01:48:45;35.03;;;23.45;;
52744;SDS011;38637;49.984;20.426;2023-04-29T01:51:10;33.67;;;24.83;;
52744;SDS011;38637;49.984;20.426;2023-04-29T01:53:36;34.63;;;25.63;;
52744;SDS011;38637;49.984;20.426;2023-04-29T01:56:03;37.60;;;25.48;;
52744;SDS011;38637;49.984;20.426;2023-04-29T01:58:28;36.10;;;25.57;;
52744;SDS011;38637;49.984;20.426;2023-04-29T02:00:54;35.57;;;25.50;;
52744;SDS011;38637;49.984;20.426;2023-04-29T02:03:19;38.50;;;27.73;;
52744;SDS011;38637;49.984;20.426;2023-04-29T02:05:45;39.67;;;28.17;;
52744;SDS011;38637;49.984;20.426;2023-04-29T02:08:10;35.57;;;26.47;;
52744;SDS011;38637;49.984;20.426;2023-04-29T02:10:35;34.73;;;26.07;;
52744;SDS011;38637;49.984;20.426;2023-04-29T02:13:01;33.30;;;25.60;;
52744;SDS011;38637;49.984;20.426;2023-04-29T02:15:26;35.70;;;25.90;;
52744;SDS011;38637;49.984;20.426;2023-04-29T02:17:52;35.72;;;25.92;;
52744;SDS011;38637;49.984;20.426;2023-04-29T02:20:18;35.30;;;25.70;;
52744;SDS011;38637;49.984;20.426;2023-04-29T02:22:44;38.97;;;25.67;;
52744;SDS011;38637;49.984;20.426;2023-04-29T02:25:09;37.73;;;26.67;;
52744;SDS011;38637;49.984;20.426;2023-04-29T02:27:35;36.78;;;24.50;;
52744;SDS011;38637;49.984;20.426;2023-04-29T02:30:01;45.13;;;27.43;;
52744;SDS011;38637;49.984;20.426;2023-04-29T02:32:26;35.53;;;25.97;;
52744;SDS011;38637;49.984;20.426;2023-04-29T02:34:51;39.87;;;26.50;;
52744;SDS011;38637;49.984;20.426;2023-04-29T02:37:17;32.10;;;24.93;;
52744;SDS011;38637;49.984;20.426;2023-04-29T02:39:42;36.53;;;25.80;;
52744;SDS011;38637;49.984;20.426;2023-04-29T02:42:08;36.60;;;24.63;;
52744;SDS011;38637;49.984;20.426;2023-04-29T02:44:33;32.83;;;24.67;;
52744;SDS011;38637;49.984;20.426;2023-04-29T02:46:58;33.57;;;24.53;;
52744;SDS011;38637;49.984;20.426;2023-04-29T02:49:24;36.50;;;22.93;;
52744;SDS011;38637;49.984;20.426;2023-04-29T02:51:49;29.23;;;23.70;;
52744;SDS011;38637;49.984;20.426;2023-04-29T02:54:15;32.20;;;23.20;;
52744;SDS011;38637;49.984;20.426;2023-04-29T02:56:41;29.13;;;23.38;;
52744;SDS011;38637;49.984;20.426;2023-04-29T02:59:07;30.60;;;22.75;;
52744;SDS011;38637;49.984;20.426;2023-04-29T03:01:32;36.13;;;23.50;;
52744;SDS011;38637;49.984;20.426;2023-04-29T03:03:57;30.77;;;22.67;;
52744;SDS011;38637;49.984;20.426;2023-04-29T03:06:22;28.37;;;22.07;;
52744;SDS011;38637;49.984;20.426;2023-04-29T03:08:48;32.63;;;23.27;;
52744;SDS011;38637;49.984;20.426;2023-04-29T03:11:13;34.00;;;22.27;;
52744;SDS011;38637;49.984;20.426;2023-04-29T03:13:38;26.30;;;20.10;;
52744;SDS011;38637;49.984;20.426;2023-04-29T03:16:04;28.20;;;21.03;;
52744;SDS011;38637;49.984;20.426;2023-04-29T03:18:30;27.75;;;18.95;;
52744;SDS011;38637;49.984;20.426;2023-04-29T03:20:56;28.63;;;19.43;;
52744;SDS011;38637;49.984;20.426;2023-04-29T03:23:21;30.47;;;18.80;;
52744;SDS011;38637;49.984;20.426;2023-04-29T03:25:46;27.07;;;18.43;;
52744;SDS011;38637;49.984;20.426;2023-04-29T03:28:12;24.80;;;18.33;;
52744;SDS011;38637;49.984;20.426;2023-04-29T03:30:37;31.67;;;19.10;;
52744;SDS011;38637;49.984;20.426;2023-04-29T03:33:02;22.50;;;16.37;;
52744;SDS011;38637;49.984;20.426;2023-04-29T03:35:28;16.67;;;12.87;;
52744;SDS011;38637;49.984;20.426;2023-04-29T03:37:53;12.97;;;11.07;;
52744;SDS011;38637;49.984;20.426;2023-04-29T03:40:18;14.10;;;9.90;;
52744;SDS011;38637;49.984;20.426;2023-04-29T03:42:44;14.70;;;11.33;;
52744;SDS011;38637;49.984;20.426;2023-04-29T03:45:09;14.67;;;11.80;;
52744;SDS011;38637;49.984;20.426;2023-04-29T03:47:38;18.75;;;11.40;;
52744;SDS011;38637;49.984;20.426;2023-04-29T03:50:03;15.67;;;9.60;;
52744;SDS011;38637;49.984;20.426;2023-04-29T03:52:29;13.63;;;9.35;;
52744;SDS011;38637;49.984;20.426;2023-04-29T03:54:54;10.67;;;6.87;;
52744;SDS011;38637;49.984;20.426;2023-04-29T03:57:20;11.77;;;6.93;;
52744;SDS011;38637;49.984;20.426;2023-04-29T03:59:45;8.50;;;6.50;;
52744;SDS011;38637;49.984;20.426;2023-04-29T04:02:14;10.55;;;5.35;;
52744;SDS011;38637;49.984;20.426;2023-04-29T04:04:40;8.63;;;6.05;;
52744;SDS011;38637;49.984;20.426;2023-04-29T04:07:06;7.43;;;5.37;;
52744;SDS011;38637;49.984;20.426;2023-04-29T04:09:31;9.30;;;5.57;;
52744;SDS011;38637;49.984;20.426;2023-04-29T04:11:57;7.43;;;5.40;;
52744;SDS011;38637;49.984;20.426;2023-04-29T04:14:22;8.30;;;6.47;;
52744;SDS011;38637;49.984;20.426;2023-04-29T04:16:48;18.57;;;12.53;;
52744;SDS011;38637;49.984;20.426;2023-04-29T04:19:14;21.10;;;15.10;;
52744;SDS011;38637;49.984;20.426;2023-04-29T04:21:40;22.17;;;15.30;;
52744;SDS011;38637;49.984;20.426;2023-04-29T04:24:06;23.80;;;16.15;;
52744;SDS011;38637;49.984;20.426;2023-04-29T04:26:31;20.87;;;15.10;;
52744;SDS011;38637;49.984;20.426;2023-04-29T04:28:57;13.20;;;9.53;;
52744;SDS011;38637;49.984;20.426;2023-04-29T04:31:22;18.00;;;11.80;;
52744;SDS011;38637;49.984;20.426;2023-04-29T04:33:48;15.60;;;11.73;;
52744;SDS011;38637;49.984;20.426;2023-04-29T04:36:13;11.47;;;9.10;;
52744;SDS011;38637;49.984;20.426;2023-04-29T04:38:38;8.13;;;7.00;;
52744;SDS011;38637;49.984;20.426;2023-04-29T04:41:06;10.07;;;6.37;;
52744;SDS011;38637;49.984;20.426;2023-04-29T04:43:32;11.90;;;5.93;;
52744;SDS011;38637;49.984;20.426;2023-04-29T04:45:57;10.17;;;6.10;;
52744;SDS011;38637;49.984;20.426;2023-04-29T04:48:22;6.83;;;5.77;;
52744;SDS011;38637;49.984;20.426;2023-04-29T04:50:48;13.67;;;6.23;;
52744;SDS011;38637;49.984;20.426;2023-04-29T04:53:13;10.53;;;6.40;;
52744;SDS011;38637;49.984;20.426;2023-04-29T04:55:38;7.90;;;5.40;;
52744;SDS011;38637;49.984;20.426;2023-04-29T04:58:04;10.93;;;5.37;;
52744;SDS011;38637;49.984;20.426;2023-04-29T05:00:29;11.70;;;5.47;;
52744;SDS011;38637;49.984;20.426;2023-04-29T05:02:54;10.03;;;5.73;;
52744;SDS011;38637;49.984;20.426;2023-04-29T05:05:20;9.87;;;6.30;;
52744;SDS011;38637;49.984;20.426;2023-04-29T05:07:45;17.37;;;8.93;;
52744;SDS011;38637;49.984;20.426;2023-04-29T05:10:11;36.53;;;18.53;;
52744;SDS011;38637;49.984;20.426;2023-04-29T05:12:36;107.13;;;50.23;;
52744;SDS011;38637;49.984;20.426;2023-04-29T05:15:02;79.83;;;40.73;;
52744;SDS011;38637;49.984;20.426;2023-04-29T05:17:28;61.38;;;33.03;;
52744;SDS011;38637;49.984;20.426;2023-04-29T05:19:54;24.50;;;14.95;;
52744;SDS011;38637;49.984;20.426;2023-04-29T05:22:19;19.23;;;11.40;;
52744;SDS011;38637;49.984;20.426;2023-04-29T05:24:45;13.30;;;7.37;;
52744;SDS011;38637;49.984;20.426;2023-04-29T05:27:12;9.07;;;6.00;;
52744;SDS011;38637;49.984;20.426;2023-04-29T05:29:37;8.27;;;6.23;;
52744;SDS011;38637;49.984;20.426;2023-04-29T05:32:03;8.93;;;5.13;;
52744;SDS011;38637;49.984;20.426;2023-04-29T05:34:28;8.30;;;5.53;;
52744;SDS011;38637;49.984;20.426;2023-04-29T05:36:54;10.23;;;5.73;;
52744;SDS011;38637;49.984;20.426;2023-04-29T05:39:19;13.03;;;6.53;;
52744;SDS011;38637;49.984;20.426;2023-04-29T05:41:44;7.63;;;5.70;;
52744;SDS011;38637;49.984;20.426;2023-04-29T05:44:10;9.00;;;5.80;;
52744;SDS011;38637;49.984;20.426;2023-04-29T05:46:35;9.30;;;5.43;;
52744;SDS011;38637;49.984;20.426;2023-04-29T05:49:01;7.00;;;5.80;;
52744;SDS011;38637;49.984;20.426;2023-04-29T05:51:26;14.60;;;8.90;;
52744;SDS011;38637;49.984;20.426;2023-04-29T05:53:52;9.97;;;8.17;;
52744;SDS011;38637;49.984;20.426;2023-04-29T05:56:18;14.82;;;8.30;;
52744;SDS011;38637;49.984;20.426;2023-04-29T05:58:44;12.20;;;7.97;;
52744;SDS011;38637;49.984;20.426;2023-04-29T06:01:09;11.47;;;8.30;;
52744;SDS011;38637;49.984;20.426;2023-04-29T06:03:35;9.30;;;6.47;;
52744;SDS011;38637;49.984;20.426;2023-04-29T06:06:01;8.35;;;5.45;;
52744;SDS011;38637;49.984;20.426;2023-04-29T06:08:26;14.10;;;4.73;;
52744;SDS011;38637;49.984;20.426;2023-04-29T06:10:52;8.93;;;5.40;;
52744;SDS011;38637;49.984;20.426;2023-04-29T06:13:17;6.87;;;4.83;;
52744;SDS011;38637;49.984;20.426;2023-04-29T06:15:43;6.60;;;4.77;;
52744;SDS011;38637;49.984;20.426;2023-04-29T06:18:08;10.87;;;5.50;;
52744;SDS011;38637;49.984;20.426;2023-04-29T06:20:34;7.80;;;4.90;;
52744;SDS011;38637;49.984;20.426;2023-04-29T06:22:59;6.50;;;5.30;;
52744;SDS011;38637;49.984;20.426;2023-04-29T06:25:24;10.30;;;7.20;;
52744;SDS011;38637;49.984;20.426;2023-04-29T06:27:49;10.90;;;5.83;;
52744;SDS011;38637;49.984;20.426;2023-04-29T06:30:15;9.50;;;5.40;;
52744;SDS011;38637;49.984;20.426;2023-04-29T06:32:40;9.73;;;6.00;;
52744;SDS011;38637;49.984;20.426;2023-04-29T06:35:06;11.40;;;6.33;;
52744;SDS011;38637;49.984;20.426;2023-04-29T06:37:31;11.27;;;8.87;;
52744;SDS011;38637;49.984;20.426;2023-04-29T06:39:57;15.07;;;7.87;;
52744;SDS011;38637;49.984;20.426;2023-04-29T06:42:22;12.50;;;7.63;;
52744;SDS011;38637;49.984;20.426;2023-04-29T06:44:47;16.60;;;9.50;;
52744;SDS011;38637;49.984;20.426;2023-04-29T06:47:13;12.47;;;9.17;;
52744;SDS011;38637;49.984;20.426;2023-04-29T06:49:39;10.88;;;8.55;;
52744;SDS011;38637;49.984;20.426;2023-04-29T06:52:04;12.50;;;7.60;;
52744;SDS011;38637;49.984;20.426;2023-04-29T06:54:29;14.80;;;7.67;;
52744;SDS011;38637;49.984;20.426;2023-04-29T06:56:55;8.83;;;6.63;;
52744;SDS011;38637;49.984;20.426;2023-04-29T06:59:22;11.68;;;7.40;;
52744;SDS011;38637;49.984;20.426;2023-04-29T07:01:47;9.87;;;6.00;;
52744;SDS011;38637;49.984;20.426;2023-04-29T07:04:12;9.13;;;4.87;;
52744;SDS011;38637;49.984;20.426;2023-04-29T07:06:38;6.67;;;5.17;;
52744;SDS011;38637;49.984;20.426;2023-04-29T07:09:03;12.80;;;5.40;;
52744;SDS011;38637;49.984;20.426;2023-04-29T07:11:28;15.03;;;7.13;;
52744;SDS011;38637;49.984;20.426;2023-04-29T07:13:54;7.80;;;5.17;;
52744;SDS011;38637;49.984;20.426;2023-04-29T07:16:20;7.78;;;4.68;;
52744;SDS011;38637;49.984;20.426;2023-04-29T07:18:46;12.90;;;9.77;;
52744;SDS011;38637;49.984;20.426;2023-04-29T07:21:12;5.88;;;4.60;;
52744;SDS011;38637;49.984;20.426;2023-04-29T07:23:37;9.20;;;4.60;;
52744;SDS011;38637;49.984;20.426;2023-04-29T07:26:13;6.83;;;4.83;;
52744;SDS011;38637;49.984;20.426;2023-04-29T07:28:40;13.20;;;7.82;;
52744;SDS011;38637;49.984;20.426;2023-04-29T07:31:06;9.20;;;5.80;;
52744;SDS011;38637;49.984;20.426;2023-04-29T07:33:33;6.97;;;5.18;;
52744;SDS011;38637;49.984;20.426;2023-04-29T07:35:59;10.48;;;7.07;;
52744;SDS011;38637;49.984;20.426;2023-04-29T07:38:25;9.37;;;5.93;;
52744;SDS011;38637;49.984;20.426;2023-04-29T07:40:50;11.83;;;6.60;;
52744;SDS011;38637;49.984;20.426;2023-04-29T07:43:15;5.83;;;4.57;;
52744;SDS011;38637;49.984;20.426;2023-04-29T07:45:41;8.47;;;5.90;;
52744;SDS011;38637;49.984;20.426;2023-04-29T07:48:06;16.50;;;8.10;;
52744;SDS011;38637;49.984;20.426;2023-04-29T07:50:35;10.53;;;6.03;;
52744;SDS011;38637;49.984;20.426;2023-04-29T07:53:01;7.03;;;4.60;;
52744;SDS011;38637;49.984;20.426;2023-04-29T07:55:27;7.28;;;5.05;;
52744;SDS011;38637;49.984;20.426;2023-04-29T07:57:55;7.50;;;5.20;;
52744;SDS011;38637;49.984;20.426;2023-04-29T08:00:21;15.23;;;7.22;;
52744;SDS011;38637;49.984;20.426;2023-04-29T08:02:50;13.43;;;6.57;;
52744;SDS011;38637;49.984;20.426;2023-04-29T08:05:19;9.43;;;4.93;;
52744;SDS011;38637;49.984;20.426;2023-04-29T08:07:45;9.67;;;5.03;;
52744;SDS011;38637;49.984;20.426;2023-04-29T08:10:12;8.13;;;5.53;;
52744;SDS011;38637;49.984;20.426;2023-04-29T08:12:37;8.90;;;5.50;;
52744;SDS011;38637;49.984;20.426;2023-04-29T08:15:03;7.57;;;4.67;;
52744;SDS011;38637;49.984;20.426;2023-04-29T08:17:29;15.25;;;5.03;;
52744;SDS011;38637;49.984;20.426;2023-04-29T08:19:54;9.97;;;4.23;;
52744;SDS011;38637;49.984;20.426;2023-04-29T08:22:19;11.77;;;6.00;;
52744;SDS011;38637;49.984;20.426;2023-04-29T08:24:45;9.40;;;4.40;;
52744;SDS011;38637;49.984;20.426;2023-04-29T08:27:10;4.33;;;2.97;;
52744;SDS011;38637;49.984;20.426;2023-04-29T08:29:35;3.93;;;2.80;;
52744;SDS011;38637;49.984;20.426;2023-04-29T08:32:01;7.60;;;3.60;;
52744;SDS011;38637;49.984;20.426;2023-04-29T08:34:26;7.97;;;3.70;;
52744;SDS011;38637;49.984;20.426;2023-04-29T08:36:52;5.40;;;2.80;;
52744;SDS011;38637;49.984;20.426;2023-04-29T08:39:17;4.63;;;3.10;;
52744;SDS011;38637;49.984;20.426;2023-04-29T08:41:43;4.50;;;2.63;;
52744;SDS011;38637;49.984;20.426;2023-04-29T08:44:13;3.47;;;2.58;;
52744;SDS011;38637;49.984;20.426;2023-04-29T08:46:39;6.90;;;2.75;;
52744;SDS011;38637;49.984;20.426;2023-04-29T08:49:05;3.15;;;2.28;;
52744;SDS011;38637;49.984;20.426;2023-04-29T08:51:31;6.30;;;2.33;;
52744;SDS011;38637;49.984;20.426;2023-04-29T08:53:58;9.88;;;4.50;;
52744;SDS011;38637;49.984;20.426;2023-04-29T08:56:23;6.03;;;3.10;;
52744;SDS011;38637;49.984;20.426;2023-04-29T08:58:49;3.30;;;2.40;;
52744;SDS011;38637;49.984;20.426;2023-04-29T09:01:22;4.60;;;2.15;;
52744;SDS011;38637;49.984;20.426;2023-04-29T09:06:32;3.70;;;2.17;;
52744;SDS011;38637;49.984;20.426;2023-04-29T09:08:58;4.13;;;2.00;;
52744;SDS011;38637;49.984;20.426;2023-04-29T09:11:25;8.65;;;2.85;;
52744;SDS011;38637;49.984;20.426;2023-04-29T09:13:51;4.45;;;1.88;;
52744;SDS011;38637;49.984;20.426;2023-04-29T09:16:23;2.05;;;1.85;;
52744;SDS011;38637;49.984;20.426;2023-04-29T09:18:49;4.30;;;1.87;;
52744;SDS011;38637;49.984;20.426;2023-04-29T09:21:16;4.35;;;2.00;;
52744;SDS011;38637;49.984;20.426;2023-04-29T09:23:47;3.63;;;2.15;;
52744;SDS011;38637;49.984;20.426;2023-04-29T09:26:14;10.45;;;2.50;;
52744;SDS011;38637;49.984;20.426;2023-04-29T09:28:40;2.78;;;1.70;;
52744;SDS011;38637;49.984;20.426;2023-04-29T09:31:08;1.90;;;1.40;;
52744;SDS011;38637;49.984;20.426;2023-04-29T09:39:15;2.85;;;1.90;;
52744;SDS011;38637;49.984;20.426;2023-04-29T09:44:16;4.45;;;2.15;;
52744;SDS011;38637;49.984;20.426;2023-04-29T09:46:42;2.88;;;2.20;;
52744;SDS011;38637;49.984;20.426;2023-04-29T09:49:22;2.42;;;2.05;;
52744;SDS011;38637;49.984;20.426;2023-04-29T09:51:55;5.07;;;2.33;;
52744;SDS011;38637;49.984;20.426;2023-04-29T09:54:22;12.93;;;2.05;;
52744;SDS011;38637;49.984;20.426;2023-04-29T09:56:50;2.70;;;2.10;;
52744;SDS011;38637;49.984;20.426;2023-04-29T09:59:17;4.72;;;2.70;;
52744;SDS011;38637;49.984;20.426;2023-04-29T10:01:43;4.30;;;2.42;;
52744;SDS011;38637;49.984;20.426;2023-04-29T10:04:12;4.03;;;2.60;;
52744;SDS011;38637;49.984;20.426;2023-04-29T10:06:40;5.15;;;2.47;;
52744;SDS011;38637;49.984;20.426;2023-04-29T10:11:32;8.93;;;2.92;;
52744;SDS011;38637;49.984;20.426;2023-04-29T10:13:58;7.07;;;3.15;;
52744;SDS011;38637;49.984;20.426;2023-04-29T10:16:27;3.10;;;2.38;;
52744;SDS011;38637;49.984;20.426;2023-04-29T10:18:55;2.78;;;1.70;;
52744;SDS011;38637;49.984;20.426;2023-04-29T10:21:28;5.28;;;2.25;;
52744;SDS011;38637;49.984;20.426;2023-04-29T10:23:58;2.47;;;2.08;;
52744;SDS011;38637;49.984;20.426;2023-04-29T10:26:26;5.68;;;2.58;;
52744;SDS011;38637;49.984;20.426;2023-04-29T10:28:54;2.50;;;1.92;;
52744;SDS011;38637;49.984;20.426;2023-04-29T10:31:21;6.10;;;2.40;;
52744;SDS011;38637;49.984;20.426;2023-04-29T10:33:46;5.10;;;2.70;;
52744;SDS011;38637;49.984;20.426;2023-04-29T10:36:13;4.75;;;2.85;;
52744;SDS011;38637;49.984;20.426;2023-04-29T10:41:16;9.13;;;2.72;;
52744;SDS011;38637;49.984;20.426;2023-04-29T10:43:45;3.85;;;2.53;;
52744;SDS011;38637;49.984;20.426;2023-04-29T10:46:17;8.60;;;2.73;;
52744;SDS011;38637;49.984;20.426;2023-04-29T10:48:43;6.22;;;3.20;;
52744;SDS011;38637;49.984;20.426;2023-04-29T10:51:08;4.25;;;2.60;;
52744;SDS011;38637;49.984;20.426;2023-04-29T10:53:34;4.30;;;2.70;;
52744;SDS011;38637;49.984;20.426;2023-04-29T10:56:03;5.87;;;2.53;;
52744;SDS011;38637;49.984;20.426;2023-04-29T10:58:39;3.60;;;2.70;;
52744;SDS011;38637;49.984;20.426;2023-04-29T11:09:00;4.22;;;2.55;;
52744;SDS011;38637;49.984;20.426;2023-04-29T11:14:09;4.95;;;2.58;;
52744;SDS011;38637;49.984;20.426;2023-04-29T11:16:36;6.25;;;3.00;;
52744;SDS011;38637;49.984;20.426;2023-04-29T11:19:02;3.63;;;2.93;;
52744;SDS011;38637;49.984;20.426;2023-04-29T11:21:28;4.68;;;2.67;;
52744;SDS011;38637;49.984;20.426;2023-04-29T11:23:55;5.97;;;2.47;;
52744;SDS011;38637;49.984;20.426;2023-04-29T11:26:21;6.07;;;2.70;;
52744;SDS011;38637;49.984;20.426;2023-04-29T11:28:47;6.15;;;3.13;;
52744;SDS011;38637;49.984;20.426;2023-04-29T11:31:16;4.55;;;2.80;;
52744;SDS011;38637;49.984;20.426;2023-04-29T11:33:41;6.07;;;3.07;;
52744;SDS011;38637;49.984;20.426;2023-04-29T11:36:06;7.40;;;2.63;;
52744;SDS011;38637;49.984;20.426;2023-04-29T11:38:35;3.90;;;2.80;;
52744;SDS011;38637;49.984;20.426;2023-04-29T11:41:04;6.63;;;2.92;;
52744;SDS011;38637;49.984;20.426;2023-04-29T11:43:29;5.17;;;3.07;;
52744;SDS011;38637;49.984;20.426;2023-04-29T11:45:54;3.43;;;2.50;;
52744;SDS011;38637;49.984;20.426;2023-04-29T11:48:20;6.80;;;2.80;;
52744;SDS011;38637;49.984;20.426;2023-04-29T11:53:13;4.80;;;2.65;;
52744;SDS011;38637;49.984;20.426;2023-04-29T11:55:42;6.53;;;2.75;;
52744;SDS011;38637;49.984;20.426;2023-04-29T11:58:08;2.88;;;2.47;;
52744;SDS011;38637;49.984;20.426;2023-04-29T12:00:34;4.03;;;3.03;;
52744;SDS011;38637;49.984;20.426;2023-04-29T12:03:00;3.83;;;2.90;;
52744;SDS011;38637;49.984;20.426;2023-04-29T12:05:25;3.17;;;2.47;;
52744;SDS011;38637;49.984;20.426;2023-04-29T12:07:51;7.50;;;2.80;;
52744;SDS011;38637;49.984;20.426;2023-04-29T12:10:16;7.63;;;2.87;;
52744;SDS011;38637;49.984;20.426;2023-04-29T12:12:42;3.50;;;2.47;;
52744;SDS011;38637;49.984;20.426;2023-04-29T12:15:09;7.63;;;2.45;;
52744;SDS011;38637;49.984;20.426;2023-04-29T12:17:35;6.45;;;2.67;;
52744;SDS011;38637;49.984;20.426;2023-04-29T12:20:01;4.35;;;2.60;;
52744;SDS011;38637;49.984;20.426;2023-04-29T12:22:30;4.37;;;3.00;;
52744;SDS011;38637;49.984;20.426;2023-04-29T12:24:56;4.38;;;2.88;;
52744;SDS011;38637;49.984;20.426;2023-04-29T12:27:22;10.37;;;5.27;;
52744;SDS011;38637;49.984;20.426;2023-04-29T12:29:50;4.50;;;3.60;;
52744;SDS011;38637;49.984;20.426;2023-04-29T12:32:16;3.05;;;2.72;;
52744;SDS011;38637;49.984;20.426;2023-04-29T12:34:44;7.05;;;2.63;;
52744;SDS011;38637;49.984;20.426;2023-04-29T12:37:10;7.55;;;3.38;;
52744;SDS011;38637;49.984;20.426;2023-04-29T12:39:37;3.47;;;3.10;;
52744;SDS011;38637;49.984;20.426;2023-04-29T12:42:02;4.23;;;2.90;;
52744;SDS011;38637;49.984;20.426;2023-04-29T12:44:35;4.07;;;3.00;;
52744;SDS011;38637;49.984;20.426;2023-04-29T12:47:08;5.13;;;3.05;;
52744;SDS011;38637;49.984;20.426;2023-04-29T12:49:34;4.70;;;3.00;;
52744;SDS011;38637;49.984;20.426;2023-04-29T12:52:01;6.53;;;3.47;;
52744;SDS011;38637;49.984;20.426;2023-04-29T12:54:26;5.90;;;3.28;;
52744;SDS011;38637;49.984;20.426;2023-04-29T12:56:52;6.70;;;3.10;;
52744;SDS011;38637;49.984;20.426;2023-04-29T12:59:17;3.70;;;3.10;;
52744;SDS011;38637;49.984;20.426;2023-04-29T13:01:43;5.70;;;4.10;;
52744;SDS011;38637;49.984;20.426;2023-04-29T13:04:08;6.23;;;3.50;;
52744;SDS011;38637;49.984;20.426;2023-04-29T13:06:35;3.85;;;2.80;;
52744;SDS011;38637;49.984;20.426;2023-04-29T13:09:06;9.93;;;3.50;;
52744;SDS011;38637;49.984;20.426;2023-04-29T13:11:35;4.45;;;3.13;;
52744;SDS011;38637;49.984;20.426;2023-04-29T13:14:00;7.77;;;3.77;;
52744;SDS011;38637;49.984;20.426;2023-04-29T13:16:26;5.37;;;3.43;;
52744;SDS011;38637;49.984;20.426;2023-04-29T13:18:51;6.00;;;3.63;;
52744;SDS011;38637;49.984;20.426;2023-04-29T13:21:17;4.17;;;2.93;;
52744;SDS011;38637;49.984;20.426;2023-04-29T13:23:42;6.93;;;2.73;;
52744;SDS011;38637;49.984;20.426;2023-04-29T13:26:07;4.40;;;3.03;;
52744;SDS011;38637;49.984;20.426;2023-04-29T13:28:33;5.37;;;2.90;;
52744;SDS011;38637;49.984;20.426;2023-04-29T13:30:59;3.80;;;2.70;;
52744;SDS011;38637;49.984;20.426;2023-04-29T13:33:24;5.47;;;2.80;;
52744;SDS011;38637;49.984;20.426;2023-04-29T13:35:49;5.37;;;2.30;;
52744;SDS011;38637;49.984;20.426;2023-04-29T13:38:15;4.00;;;2.37;;
52744;SDS011;38637;49.984;20.426;2023-04-29T13:40:41;3.10;;;2.80;;
52744;SDS011;38637;49.984;20.426;2023-04-29T13:43:06;3.90;;;2.53;;
52744;SDS011;38637;49.984;20.426;2023-04-29T13:45:32;6.20;;;2.77;;
52744;SDS011;38637;49.984;20.426;2023-04-29T13:47:59;4.07;;;2.60;;
52744;SDS011;38637;49.984;20.426;2023-04-29T13:50:25;4.37;;;2.60;;
52744;SDS011;38637;49.984;20.426;2023-04-29T13:52:50;5.27;;;4.10;;
52744;SDS011;38637;49.984;20.426;2023-04-29T13:55:16;6.10;;;3.87;;
52744;SDS011;38637;49.984;20.426;2023-04-29T13:57:41;10.40;;;4.17;;
52744;SDS011;38637;49.984;20.426;2023-04-29T14:00:06;6.77;;;3.70;;
52744;SDS011;38637;49.984;20.426;2023-04-29T14:02:33;10.98;;;4.45;;
52744;SDS011;38637;49.984;20.426;2023-04-29T14:04:58;5.37;;;3.27;;
52744;SDS011;38637;49.984;20.426;2023-04-29T14:07:24;4.13;;;2.93;;
52744;SDS011;38637;49.984;20.426;2023-04-29T14:09:49;3.63;;;3.10;;
52744;SDS011;38637;49.984;20.426;2023-04-29T14:12:14;4.13;;;3.20;;
52744;SDS011;38637;49.984;20.426;2023-04-29T14:14:40;5.40;;;3.80;;
52744;SDS011;38637;49.984;20.426;2023-04-29T14:17:05;6.93;;;3.07;;
52744;SDS011;38637;49.984;20.426;2023-04-29T14:19:30;5.73;;;3.60;;
52744;SDS011;38637;49.984;20.426;2023-04-29T14:21:56;5.03;;;3.30;;
52744;SDS011;38637;49.984;20.426;2023-04-29T14:24:21;4.90;;;3.70;;
52744;SDS011;38637;49.984;20.426;2023-04-29T14:26:46;8.67;;;4.23;;
52744;SDS011;38637;49.984;20.426;2023-04-29T14:29:12;8.13;;;4.20;;
52744;SDS011;38637;49.984;20.426;2023-04-29T14:31:37;6.70;;;2.73;;
52744;SDS011;38637;49.984;20.426;2023-04-29T14:34:02;5.33;;;2.97;;
52744;SDS011;38637;49.984;20.426;2023-04-29T14:36:28;5.13;;;3.33;;
52744;SDS011;38637;49.984;20.426;2023-04-29T14:38:54;4.13;;;3.30;;
52744;SDS011;38637;49.984;20.426;2023-04-29T14:41:19;5.37;;;3.23;;
52744;SDS011;38637;49.984;20.426;2023-04-29T14:43:45;7.93;;;5.20;;
52744;SDS011;38637;49.984;20.426;2023-04-29T14:46:11;9.87;;;6.00;;
52744;SDS011;38637;49.984;20.426;2023-04-29T14:48:36;13.40;;;9.83;;
52744;SDS011;38637;49.984;20.426;2023-04-29T14:51:02;15.40;;;10.00;;
52744;SDS011;38637;49.984;20.426;2023-04-29T14:53:27;19.87;;;10.00;;
52744;SDS011;38637;49.984;20.426;2023-04-29T14:55:53;28.27;;;17.63;;